createdAt,value
2018-08-25T00:02:07.174Z,19.60
2018-08-25T00:04:37.337Z,19.50
2018-08-25T00:07:06.956Z,19.40
2018-08-25T00:09:37.015Z,19.30
2018-08-25T00:12:07.169Z,19.20
2018-08-25T00:14:37.261Z,19.30
2018-08-25T00:17:06.969Z,19.10
2018-08-25T00:19:36.199Z,19.10
2018-08-25T00:22:05.455Z,19.20
2018-08-25T00:24:35.089Z,19.20
2018-08-25T00:27:05.353Z,19.20
2018-08-25T00:29:34.513Z,19.20
2018-08-25T00:32:04.422Z,19.30
2018-08-25T00:34:34.348Z,19.20
2018-08-25T00:37:03.292Z,19.10
2018-08-25T00:39:33.110Z,19.00
2018-08-25T00:42:02.811Z,19.00
2018-08-25T00:44:32.270Z,19.00
2018-08-25T00:47:02.029Z,19.00
2018-08-25T00:49:31.121Z,19.00
2018-08-25T00:52:00.941Z,19.00
2018-08-25T00:54:29.979Z,19.10
2018-08-25T00:56:59.886Z,19.10
2018-08-25T00:59:29.876Z,19.10
2018-08-25T01:01:59.650Z,19.10
2018-08-25T01:04:29.721Z,19.00
2018-08-25T01:06:59.169Z,19.00
2018-08-25T01:09:28.345Z,18.90
2018-08-25T01:11:57.847Z,18.90
2018-08-25T01:14:26.707Z,18.90
2018-08-25T01:16:55.855Z,18.80
2018-08-25T01:19:25.284Z,18.80
2018-08-25T01:21:54.159Z,18.80
2018-08-25T01:24:23.114Z,18.80
2018-08-25T01:26:52.092Z,18.70
2018-08-25T01:29:20.893Z,18.70
2018-08-25T01:31:49.870Z,18.70
2018-08-25T01:34:19.068Z,18.70
2018-08-25T01:36:48.300Z,18.70
2018-08-25T01:39:17.125Z,18.70
2018-08-25T01:41:46.238Z,18.70
2018-08-25T01:44:15.506Z,18.60
2018-08-25T01:46:44.918Z,18.60
2018-08-25T01:49:14.549Z,18.70
2018-08-25T01:51:43.624Z,18.60
2018-08-25T01:54:12.750Z,18.60
2018-08-25T01:56:42.542Z,18.60
2018-08-25T01:59:12.107Z,18.70
2018-08-25T02:01:41.333Z,18.60
2018-08-25T02:04:10.387Z,18.60
2018-08-25T02:06:40.083Z,18.60
2018-08-25T02:09:12.565Z,18.50
2018-08-25T02:11:42.124Z,18.50
2018-08-25T02:14:12.205Z,18.50
2018-08-25T02:16:42.359Z,18.40
2018-08-25T02:19:12.171Z,18.40
2018-08-25T02:21:41.473Z,18.40
2018-08-25T02:24:11.283Z,18.40
2018-08-25T02:26:40.699Z,18.40
2018-08-25T02:29:10.314Z,18.40
2018-08-25T02:31:39.856Z,18.40
2018-08-25T02:34:09.182Z,18.30
2018-08-25T02:36:38.474Z,18.40
2018-08-25T02:39:11.264Z,18.40
2018-08-25T02:41:40.606Z,18.40
2018-08-25T02:44:10.447Z,18.40
2018-08-25T02:46:40.173Z,18.50
2018-08-25T02:49:09.752Z,18.50
2018-08-25T02:51:39.285Z,18.50
2018-08-25T02:54:08.857Z,18.50
2018-08-25T02:56:38.833Z,18.50
2018-08-25T02:59:08.365Z,18.60
2018-08-25T03:01:37.827Z,18.50
2018-08-25T03:04:07.557Z,18.50
2018-08-25T03:06:37.187Z,18.50
2018-08-25T03:09:10.097Z,18.50
2018-08-25T03:11:39.830Z,18.50
2018-08-25T03:14:09.511Z,18.50
2018-08-25T03:16:38.830Z,18.50
2018-08-25T03:19:08.690Z,18.50
2018-08-25T03:21:38.110Z,18.40
2018-08-25T03:24:07.662Z,18.40
2018-08-25T03:26:36.646Z,18.40
2018-08-25T03:29:06.144Z,18.30
2018-08-25T03:31:35.966Z,18.30
2018-08-25T03:34:07.385Z,18.20
2018-08-25T03:36:36.933Z,18.20
2018-08-25T03:39:08.508Z,18.30
2018-08-25T03:41:38.170Z,18.20
2018-08-25T03:44:09.574Z,18.30
2018-08-25T03:46:40.233Z,18.40
2018-08-25T03:49:09.480Z,18.30
2018-08-25T03:51:38.553Z,18.20
2018-08-25T03:54:08.433Z,18.20
2018-08-25T03:56:38.147Z,18.20
2018-08-25T03:59:08.110Z,18.10
2018-08-25T04:01:37.289Z,18.10
2018-08-25T04:04:07.348Z,18.00
2018-08-25T04:06:37.550Z,17.90
2018-08-25T04:09:12.703Z,17.90
2018-08-25T04:11:41.842Z,17.90
2018-08-25T04:14:12.380Z,18.00
2018-08-25T04:16:41.546Z,17.90
2018-08-25T04:19:18.742Z,17.90
2018-08-25T04:21:48.050Z,17.90
2018-08-25T04:24:16.918Z,18.00
2018-08-25T04:26:45.843Z,18.00
2018-08-25T04:29:14.811Z,18.00
2018-08-25T04:31:44.156Z,17.90
2018-08-25T04:34:13.054Z,17.90
2018-08-25T04:36:42.516Z,17.80
2018-08-25T04:39:12.729Z,17.80
2018-08-25T04:41:42.087Z,17.90
2018-08-25T04:44:13.380Z,17.90
2018-08-25T04:46:42.685Z,17.80
2018-08-25T04:49:12.678Z,17.70
2018-08-25T04:51:42.096Z,17.70
2018-08-25T04:54:12.654Z,17.70
2018-08-25T04:56:42.611Z,17.70
2018-08-25T04:59:12.369Z,17.70
2018-08-25T05:01:41.935Z,17.70
2018-08-25T05:04:11.562Z,17.70
2018-08-25T05:06:41.386Z,17.70
2018-08-25T05:09:11.528Z,17.70
2018-08-25T05:11:40.934Z,17.60
2018-08-25T05:14:10.510Z,17.70
2018-08-25T05:16:40.403Z,17.70
2018-08-25T05:19:10.861Z,17.70
2018-08-25T05:21:42.174Z,17.90
2018-08-25T05:24:12.734Z,17.90
2018-08-25T05:26:43.576Z,18.00
2018-08-25T05:29:13.003Z,18.00
2018-08-25T05:31:42.539Z,18.10
2018-08-25T05:34:13.553Z,18.20
2018-08-25T05:36:43.829Z,18.20
2018-08-25T05:39:13.849Z,18.30
2018-08-25T05:41:42.842Z,18.30
2018-08-25T05:44:12.454Z,18.40
2018-08-25T05:46:42.161Z,18.40
2018-08-25T05:49:11.557Z,18.50
2018-08-25T05:51:40.642Z,18.60
2018-08-25T05:54:10.256Z,18.60
2018-08-25T05:56:39.720Z,18.60
2018-08-25T05:59:09.444Z,18.70
2018-08-25T06:01:38.701Z,18.70
2018-08-25T06:04:08.657Z,18.60
2018-08-25T06:06:38.413Z,18.40
2018-08-25T06:09:10.223Z,18.50
2018-08-25T06:11:39.559Z,18.60
2018-08-25T06:14:08.757Z,18.80
2018-08-25T06:16:37.615Z,19.10
2018-08-25T06:19:07.261Z,19.40
2018-08-25T06:21:37.040Z,19.90
2018-08-25T06:24:06.769Z,20.40
2018-08-25T06:26:35.961Z,20.70
2018-08-25T06:29:06.286Z,20.90
2018-08-25T06:31:35.992Z,21.10
2018-08-25T06:34:05.522Z,21.20
2018-08-25T06:36:35.495Z,21.40
2018-08-25T06:39:08.631Z,21.70
2018-08-25T06:41:38.224Z,21.40
2018-08-25T06:44:07.240Z,21.00
2018-08-25T06:46:36.129Z,21.20
2018-08-25T06:49:05.598Z,21.70
2018-08-25T06:51:35.522Z,22.30
2018-08-25T06:54:05.696Z,24.40
2018-08-25T06:56:35.836Z,27.30
2018-08-25T06:59:05.462Z,29.20
2018-08-25T07:01:35.664Z,30.10
2018-08-25T07:04:06.129Z,31.10
2018-08-25T07:06:35.929Z,31.90
2018-08-25T07:09:09.247Z,32.80
2018-08-25T07:11:40.528Z,32.20
2018-08-25T07:14:10.474Z,29.70
2018-08-25T07:16:39.769Z,27.70
2018-08-25T07:19:09.044Z,26.60
2018-08-25T07:21:38.785Z,26.00
2018-08-25T07:24:08.485Z,25.10
2018-08-25T07:26:38.228Z,24.50
2018-08-25T07:29:07.941Z,23.90
2018-08-25T07:31:37.304Z,23.30
2018-08-25T07:34:07.946Z,22.90
2018-08-25T07:36:38.354Z,22.70
2018-08-25T07:39:10.340Z,22.80
2018-08-25T07:41:39.828Z,23.00
2018-08-25T07:44:10.308Z,23.20
2018-08-25T07:46:40.658Z,23.40
2018-08-25T07:49:10.356Z,23.00
2018-08-25T07:51:40.127Z,22.60
2018-08-25T07:54:10.046Z,22.70
2018-08-25T07:56:39.688Z,23.10
2018-08-25T07:59:09.415Z,23.90
2018-08-25T08:01:39.079Z,25.40
2018-08-25T08:04:09.507Z,28.20
2018-08-25T08:06:38.969Z,31.40
2018-08-25T08:09:10.097Z,33.20
2018-08-25T08:11:40.784Z,35.40
2018-08-25T08:14:11.260Z,35.40
2018-08-25T08:16:41.085Z,34.80
2018-08-25T08:19:11.429Z,35.50
2018-08-25T08:21:41.574Z,35.70
2018-08-25T08:24:11.606Z,32.80
2018-08-25T08:26:41.329Z,31.70
2018-08-25T08:29:11.548Z,32.30
2018-08-25T08:31:42.010Z,33.90
2018-08-25T08:34:12.572Z,34.40
2018-08-25T08:36:42.984Z,34.00
2018-08-25T08:39:13.053Z,34.50
2018-08-25T08:41:43.306Z,37.30
2018-08-25T08:44:13.428Z,38.80
2018-08-25T08:46:43.650Z,37.20
2018-08-25T08:49:13.656Z,36.60
2018-08-25T08:51:43.492Z,36.70
2018-08-25T08:54:13.388Z,34.10
2018-08-25T08:56:44.043Z,33.10
2018-08-25T08:59:14.215Z,30.30
2018-08-25T09:01:44.235Z,32.00
2018-08-25T09:04:13.897Z,33.70
2018-08-25T09:06:43.576Z,35.50
2018-08-25T09:09:13.110Z,35.60
2018-08-25T09:11:42.467Z,33.80
2018-08-25T09:14:11.792Z,30.90
2018-08-25T09:16:41.243Z,29.20
2018-08-25T09:19:11.942Z,28.00
2018-08-25T09:21:41.203Z,27.70
2018-08-25T09:24:11.033Z,27.30
2018-08-25T09:26:41.377Z,27.20
2018-08-25T09:29:11.418Z,26.90
2018-08-25T09:31:40.954Z,26.90
2018-08-25T09:34:10.427Z,27.00
2018-08-25T09:36:40.090Z,27.10
2018-08-25T09:39:10.854Z,27.40
2018-08-25T09:41:40.756Z,26.50
2018-08-25T09:44:10.370Z,26.00
2018-08-25T09:46:39.844Z,25.10
2018-08-25T09:49:09.755Z,25.30
2018-08-25T09:51:39.221Z,25.80
2018-08-25T09:54:08.668Z,26.10
2018-08-25T09:56:38.122Z,25.90
2018-08-25T09:59:09.858Z,25.10
2018-08-25T10:01:44.648Z,24.90
2018-08-25T10:04:15.234Z,24.90
2018-08-25T10:06:44.656Z,25.40
2018-08-25T10:09:13.994Z,25.50
2018-08-25T10:11:43.245Z,25.60
2018-08-25T10:14:12.304Z,25.80
2018-08-25T10:16:41.423Z,25.80
2018-08-25T10:19:10.545Z,25.90
2018-08-25T10:21:39.866Z,25.90
2018-08-25T10:24:09.834Z,25.70
2018-08-25T10:26:39.221Z,25.50
2018-08-25T10:29:08.965Z,25.70
2018-08-25T10:31:38.949Z,25.90
2018-08-25T10:34:08.390Z,25.20
2018-08-25T10:36:38.374Z,25.40
2018-08-25T10:39:10.797Z,25.40
2018-08-25T10:41:41.167Z,25.60
2018-08-25T10:44:10.739Z,25.70
2018-08-25T10:46:40.531Z,25.70
2018-08-25T10:49:11.473Z,25.80
2018-08-25T10:51:41.468Z,25.60
2018-08-25T10:54:11.566Z,25.40
2018-08-25T10:56:42.462Z,25.10
2018-08-25T10:59:12.578Z,24.80
2018-08-25T11:01:43.432Z,25.00
2018-08-25T11:04:13.209Z,24.70
2018-08-25T11:06:42.382Z,24.00
2018-08-25T11:09:13.736Z,24.00
2018-08-25T11:11:43.570Z,24.10
2018-08-25T11:14:12.700Z,23.70
2018-08-25T11:16:42.242Z,23.40
2018-08-25T11:19:12.221Z,23.30
2018-08-25T11:21:42.772Z,23.00
2018-08-25T11:24:12.463Z,22.60
2018-08-25T11:26:42.611Z,22.50
2018-08-25T11:29:13.843Z,22.60
2018-08-25T11:31:43.357Z,22.40
2018-08-25T11:34:13.850Z,22.30
2018-08-25T11:36:43.983Z,22.00
2018-08-25T11:39:13.803Z,21.90
2018-08-25T11:41:43.463Z,21.80
2018-08-25T11:44:12.555Z,21.80
2018-08-25T11:46:42.678Z,22.00
2018-08-25T11:49:14.076Z,22.30
2018-08-25T11:51:43.531Z,22.90
2018-08-25T11:54:12.927Z,23.00
2018-08-25T11:56:43.298Z,23.30
2018-08-25T11:59:12.899Z,23.60
2018-08-25T12:01:41.918Z,23.80
2018-08-25T12:04:11.442Z,23.60
2018-08-25T12:06:41.267Z,23.70
2018-08-25T12:09:12.953Z,23.80
2018-08-25T12:11:43.011Z,23.70
2018-08-25T12:14:13.412Z,23.60
2018-08-25T12:16:43.505Z,23.70
2018-08-25T12:19:12.845Z,23.40
2018-08-25T12:21:42.181Z,23.40
2018-08-25T12:24:11.415Z,23.00
2018-08-25T12:26:40.544Z,23.00
2018-08-25T12:29:09.842Z,22.90
2018-08-25T12:31:39.237Z,22.90
2018-08-25T12:34:09.746Z,22.70
2018-08-25T12:36:39.199Z,22.60
2018-08-25T12:39:10.072Z,22.60
2018-08-25T12:41:39.858Z,22.50
2018-08-25T12:44:09.254Z,22.40
2018-08-25T12:46:38.570Z,22.30
2018-08-25T12:49:09.857Z,22.20
2018-08-25T12:51:41.886Z,22.10
2018-08-25T12:54:12.249Z,21.80
2018-08-25T12:56:42.307Z,21.70
2018-08-25T12:59:11.315Z,21.50
2018-08-25T13:01:40.929Z,21.30
2018-08-25T13:04:10.227Z,21.40
2018-08-25T13:06:39.590Z,21.10
2018-08-25T13:09:10.804Z,20.70
2018-08-25T13:11:40.062Z,20.50
2018-08-25T13:14:10.056Z,20.60
2018-08-25T13:16:41.111Z,20.20
2018-08-25T13:19:10.584Z,19.90
2018-08-25T13:21:39.608Z,19.70
2018-08-25T13:24:09.513Z,19.80
2018-08-25T13:26:39.183Z,19.70
2018-08-25T13:29:08.785Z,19.50
2018-08-25T13:31:39.505Z,19.60
2018-08-25T13:34:09.768Z,19.50
2018-08-25T13:36:39.762Z,19.30
2018-08-25T13:39:11.113Z,19.20
2018-08-25T13:41:41.784Z,19.20
2018-08-25T13:44:13.317Z,19.00
2018-08-25T13:46:43.468Z,18.90
2018-08-25T13:49:12.470Z,18.80
2018-08-25T13:51:41.529Z,18.60
2018-08-25T13:54:12.186Z,18.50
2018-08-25T13:56:42.004Z,18.60
2018-08-25T13:59:11.776Z,18.60
2018-08-25T14:01:41.681Z,18.60
2018-08-25T14:04:11.255Z,18.10
2018-08-25T14:06:42.877Z,18.40
2018-08-25T14:09:12.228Z,18.50
2018-08-25T14:11:41.469Z,18.30
2018-08-25T14:14:11.315Z,18.40
2018-08-25T14:16:41.281Z,18.50
2018-08-25T14:19:10.776Z,18.80
2018-08-25T14:21:41.955Z,19.00
2018-08-25T14:24:12.304Z,19.00
2018-08-25T14:26:42.352Z,18.80
2018-08-25T14:29:12.684Z,18.60
2018-08-25T14:31:42.989Z,18.70
2018-08-25T14:34:13.990Z,18.70
2018-08-25T14:36:44.994Z,18.80
2018-08-25T14:39:17.255Z,18.90
2018-08-25T14:41:47.208Z,19.00
2018-08-25T14:44:16.664Z,19.00
2018-08-25T14:46:46.685Z,19.10
2018-08-25T14:49:15.967Z,19.10
2018-08-25T14:51:45.904Z,19.10
2018-08-25T14:54:15.670Z,19.20
2018-08-25T14:56:45.145Z,19.20
2018-08-25T14:59:15.237Z,19.20
2018-08-25T15:01:45.682Z,19.30
2018-08-25T15:04:16.080Z,19.40
2018-08-25T15:06:45.546Z,19.40
2018-08-25T15:09:14.927Z,19.50
2018-08-25T15:11:45.411Z,19.60
2018-08-25T15:14:15.600Z,19.70
2018-08-25T15:16:45.342Z,19.80
2018-08-25T15:19:15.245Z,19.90
2018-08-25T15:21:45.145Z,19.90
2018-08-25T15:24:14.121Z,19.80
2018-08-25T15:26:43.937Z,19.60
2018-08-25T15:29:12.966Z,19.50
2018-08-25T15:31:41.811Z,19.40
2018-08-25T15:34:12.192Z,19.40
2018-08-25T15:36:42.023Z,19.40
2018-08-25T15:39:13.668Z,19.30
2018-08-25T15:41:43.750Z,19.20
2018-08-25T15:44:12.917Z,19.20
2018-08-25T15:46:42.800Z,19.20
2018-08-25T15:49:12.215Z,19.40
2018-08-25T15:51:41.819Z,19.40
2018-08-25T15:54:11.134Z,19.20
2018-08-25T15:56:40.985Z,19.00
2018-08-25T15:59:11.214Z,19.00
2018-08-25T16:01:40.553Z,19.10
2018-08-25T16:04:10.766Z,19.00
2018-08-25T16:06:41.444Z,19.00
2018-08-25T16:09:12.223Z,19.00
2018-08-25T16:11:42.345Z,19.10
2018-08-25T16:14:11.689Z,19.10
2018-08-25T16:16:40.720Z,19.20
2018-08-25T16:19:09.676Z,19.10
2018-08-25T16:21:39.219Z,19.10
2018-08-25T16:24:10.855Z,19.20
2018-08-25T16:26:42.567Z,19.20
2018-08-25T16:29:11.833Z,19.20
2018-08-25T16:31:41.640Z,19.10
2018-08-25T16:34:11.703Z,18.90
2018-08-25T16:36:42.222Z,18.60
2018-08-25T16:39:11.422Z,18.50
2018-08-25T16:41:40.961Z,18.40
2018-08-25T16:44:10.082Z,18.40
2018-08-25T16:46:39.581Z,18.40
2018-08-25T16:49:08.863Z,18.40
2018-08-25T16:51:38.781Z,18.50
2018-08-25T16:54:09.166Z,18.50
2018-08-25T16:56:39.301Z,18.40
2018-08-25T16:59:09.582Z,18.40
2018-08-25T17:01:39.115Z,18.40
2018-08-25T17:04:09.368Z,18.40
2018-08-25T17:06:39.227Z,18.40
2018-08-25T17:09:10.222Z,18.30
2018-08-25T17:11:39.964Z,18.20
2018-08-25T17:14:09.992Z,18.20
2018-08-25T17:16:39.829Z,18.20
2018-08-25T17:19:09.529Z,18.20
2018-08-25T17:21:39.165Z,18.10
2018-08-25T17:24:11.143Z,18.20
2018-08-25T17:26:41.688Z,18.10
2018-08-25T17:29:12.057Z,18.00
2018-08-25T17:31:41.973Z,17.90
2018-08-25T17:34:12.049Z,17.90
2018-08-25T17:36:42.688Z,17.80
2018-08-25T17:39:13.440Z,17.80
2018-08-25T17:41:43.045Z,17.70
2018-08-25T17:44:12.599Z,17.70
2018-08-25T17:46:42.698Z,17.60
2018-08-25T17:49:14.947Z,17.60
2018-08-25T17:51:45.491Z,17.60
2018-08-25T17:54:15.018Z,17.50
2018-08-25T17:56:44.593Z,17.50
2018-08-25T17:59:14.625Z,17.60
2018-08-25T18:01:45.276Z,17.50
2018-08-25T18:04:14.670Z,17.40
2018-08-25T18:06:43.881Z,17.40
2018-08-25T18:09:13.005Z,17.30
2018-08-25T18:11:42.570Z,17.20
2018-08-25T18:14:12.116Z,17.20
2018-08-25T18:16:41.956Z,17.10
2018-08-25T18:19:11.768Z,17.10
2018-08-25T18:21:41.225Z,17.00
2018-08-25T18:24:10.594Z,16.90
2018-08-25T18:26:40.908Z,17.00
2018-08-25T18:29:10.921Z,16.90
2018-08-25T18:31:41.939Z,16.90
2018-08-25T18:34:11.348Z,16.90
2018-08-25T18:36:40.539Z,16.90
2018-08-25T18:39:11.816Z,16.80
2018-08-25T18:41:41.858Z,16.80
2018-08-25T18:44:10.816Z,16.80
2018-08-25T18:46:41.541Z,16.80
2018-08-25T18:49:11.018Z,16.70
2018-08-25T18:51:40.657Z,16.70
2018-08-25T18:54:10.821Z,16.70
2018-08-25T18:56:40.371Z,16.70
2018-08-25T18:59:10.794Z,16.60
2018-08-25T19:01:40.200Z,16.70
2018-08-25T19:04:11.893Z,16.60
2018-08-25T19:06:41.268Z,16.60
2018-08-25T19:09:11.048Z,16.60
2018-08-25T19:11:39.938Z,16.70
2018-08-25T19:14:11.655Z,16.60
2018-08-25T19:16:41.820Z,16.50
2018-08-25T19:19:12.056Z,16.50
2018-08-25T19:21:42.252Z,16.50
2018-08-25T19:24:12.111Z,16.40
2018-08-25T19:26:41.808Z,16.40
2018-08-25T19:29:11.153Z,16.40
2018-08-25T19:31:40.921Z,16.40
2018-08-25T19:34:11.250Z,16.40
2018-08-25T19:36:40.989Z,16.40
2018-08-25T19:39:10.883Z,16.40
2018-08-25T19:41:40.199Z,16.40
2018-08-25T19:44:09.513Z,16.40
2018-08-25T19:46:39.617Z,16.40
2018-08-25T19:49:11.134Z,16.40
2018-08-25T19:51:40.832Z,16.30
2018-08-25T19:54:11.476Z,16.30
2018-08-25T19:56:41.700Z,16.30
2018-08-25T19:59:10.953Z,16.20
2018-08-25T20:01:40.146Z,16.20
2018-08-25T20:04:09.621Z,16.10
2018-08-25T20:06:39.582Z,16.10
2018-08-25T20:09:10.292Z,16.00
2018-08-25T20:11:40.696Z,16.00
2018-08-25T20:14:10.264Z,15.90
2018-08-25T20:16:39.888Z,15.90
2018-08-25T20:19:10.617Z,15.90
2018-08-25T20:21:42.098Z,15.90
2018-08-25T20:24:11.511Z,15.90
2018-08-25T20:26:41.412Z,15.90
2018-08-25T20:29:11.460Z,15.90
2018-08-25T20:31:43.212Z,15.80
2018-08-25T20:34:13.841Z,15.80
2018-08-25T20:36:43.804Z,15.80
2018-08-25T20:39:13.619Z,15.80
2018-08-25T20:41:43.080Z,15.80
2018-08-25T20:44:12.722Z,15.80
2018-08-25T20:46:42.530Z,15.80
2018-08-25T20:49:12.290Z,15.80
2018-08-25T20:51:43.150Z,15.80
2018-08-25T20:54:13.407Z,15.80
2018-08-25T20:56:43.199Z,15.70
2018-08-25T20:59:13.782Z,15.80
2018-08-25T21:01:43.339Z,15.70
2018-08-25T21:04:13.261Z,15.70
2018-08-25T21:06:43.015Z,15.60
2018-08-25T21:09:14.053Z,15.60
2018-08-25T21:11:43.644Z,15.60
2018-08-25T21:14:12.815Z,15.60
2018-08-25T21:16:42.052Z,15.60
2018-08-25T21:19:12.472Z,15.60
2018-08-25T21:21:42.040Z,15.60
2018-08-25T21:24:11.634Z,15.60
2018-08-25T21:26:40.722Z,15.60
2018-08-25T21:29:09.685Z,15.60
2018-08-25T21:31:38.844Z,15.60
2018-08-25T21:34:08.802Z,15.50
2018-08-25T21:36:39.333Z,15.50
2018-08-25T21:39:11.818Z,15.50
2018-08-25T21:41:41.140Z,15.40
2018-08-25T21:44:10.913Z,15.40
2018-08-25T21:46:41.180Z,15.40
2018-08-25T21:49:10.797Z,15.40
2018-08-25T21:51:40.064Z,15.40
2018-08-25T21:54:09.937Z,15.40
2018-08-25T21:56:40.091Z,15.30
2018-08-25T21:59:09.415Z,15.20
2018-08-25T22:01:40.894Z,15.20
2018-08-25T22:04:11.433Z,15.20
2018-08-25T22:06:40.535Z,15.20
2018-08-25T22:09:11.737Z,15.20
2018-08-25T22:11:41.214Z,15.20
2018-08-25T22:14:10.886Z,15.10
2018-08-25T22:16:41.717Z,15.10
2018-08-25T22:19:11.019Z,15.00
2018-08-25T22:21:41.640Z,15.00
2018-08-25T22:24:11.111Z,15.10
2018-08-25T22:26:40.668Z,15.00
2018-08-25T22:29:09.851Z,15.10
2018-08-25T22:31:39.301Z,15.00
2018-08-25T22:34:08.287Z,15.10
2018-08-25T22:36:38.519Z,15.00
2018-08-25T22:39:11.147Z,15.00
2018-08-25T22:41:40.816Z,15.00
2018-08-25T22:44:11.160Z,14.90
2018-08-25T22:46:40.784Z,14.90
2018-08-25T22:49:11.648Z,14.90
2018-08-25T22:51:41.159Z,14.80
2018-08-25T22:54:10.101Z,14.80
2018-08-25T22:56:39.501Z,14.80
2018-08-25T22:59:09.007Z,14.70
2018-08-25T23:01:38.785Z,14.70
2018-08-25T23:04:08.654Z,14.70
2018-08-25T23:06:37.649Z,14.70
2018-08-25T23:09:08.367Z,14.70
2018-08-25T23:11:39.329Z,14.70
2018-08-25T23:14:09.137Z,14.70
2018-08-25T23:16:39.235Z,14.70
2018-08-25T23:19:08.809Z,14.70
2018-08-25T23:21:39.377Z,14.70
2018-08-25T23:24:09.679Z,14.70
2018-08-25T23:26:39.727Z,14.70
2018-08-25T23:29:09.340Z,14.70
2018-08-25T23:31:38.817Z,14.60
2018-08-25T23:34:08.078Z,14.60
2018-08-25T23:36:38.066Z,14.60
2018-08-25T23:39:09.408Z,14.40
2018-08-25T23:41:39.331Z,14.40
2018-08-25T23:44:09.399Z,14.40
2018-08-25T23:46:39.008Z,14.50
2018-08-25T23:49:10.142Z,14.80
2018-08-25T23:51:40.148Z,14.90
2018-08-25T23:54:10.364Z,15.30
2018-08-25T23:56:39.807Z,15.30
2018-08-25T23:59:09.545Z,15.30
